sensor_id;sensor_type;location;lat;lon;timestamp;P1;durP1;ratioP1;P2;durP2;ratioP2
32323;SDS011;25666;44.350;9.222;2023-05-10T00:01:07;12.57;;;9.00;;
32323;SDS011;25666;44.350;9.222;2023-05-10T00:03:35;11.32;;;7.97;;
32323;SDS011;25666;44.350;9.222;2023-05-10T00:06:01;11.40;;;8.15;;
32323;SDS011;25666;44.350;9.222;2023-05-10T00:08:29;18.40;;;8.93;;
32323;SDS011;25666;44.350;9.222;2023-05-10T00:10:55;16.05;;;9.38;;
32323;SDS011;25666;44.350;9.222;2023-05-10T00:13:20;10.85;;;7.57;;
32323;SDS011;25666;44.350;9.222;2023-05-10T00:15:46;11.88;;;8.23;;
32323;SDS011;25666;44.350;9.222;2023-05-10T00:18:12;10.07;;;7.13;;
32323;SDS011;25666;44.350;9.222;2023-05-10T00:20:40;14.35;;;9.60;;
32323;SDS011;25666;44.350;9.222;2023-05-10T00:23:06;14.98;;;8.23;;
32323;SDS011;25666;44.350;9.222;2023-05-10T00:25:31;15.05;;;8.18;;
32323;SDS011;25666;44.350;9.222;2023-05-10T00:27:57;13.75;;;9.27;;
32323;SDS011;25666;44.350;9.222;2023-05-10T00:30:22;13.45;;;8.20;;
32323;SDS011;25666;44.350;9.222;2023-05-10T00:32:48;12.70;;;8.38;;
32323;SDS011;25666;44.350;9.222;2023-05-10T00:35:17;15.65;;;8.25;;
32323;SDS011;25666;44.350;9.222;2023-05-10T00:37:43;12.90;;;8.43;;
32323;SDS011;25666;44.350;9.222;2023-05-10T00:40:08;12.57;;;8.38;;
32323;SDS011;25666;44.350;9.222;2023-05-10T00:42:34;14.73;;;9.13;;
32323;SDS011;25666;44.350;9.222;2023-05-10T00:45:03;13.70;;;8.68;;
32323;SDS011;25666;44.350;9.222;2023-05-10T00:47:29;13.20;;;8.82;;
32323;SDS011;25666;44.350;9.222;2023-05-10T00:49:55;12.25;;;8.43;;
32323;SDS011;25666;44.350;9.222;2023-05-10T00:52:21;17.95;;;9.25;;
32323;SDS011;25666;44.350;9.222;2023-05-10T00:54:49;16.45;;;9.40;;
32323;SDS011;25666;44.350;9.222;2023-05-10T00:57:16;16.08;;;9.55;;
32323;SDS011;25666;44.350;9.222;2023-05-10T00:59:42;15.32;;;8.32;;
32323;SDS011;25666;44.350;9.222;2023-05-10T01:02:08;14.05;;;8.88;;
32323;SDS011;25666;44.350;9.222;2023-05-10T01:04:34;16.58;;;9.65;;
32323;SDS011;25666;44.350;9.222;2023-05-10T01:07:01;10.93;;;8.43;;
32323;SDS011;25666;44.350;9.222;2023-05-10T01:09:26;14.55;;;8.18;;
32323;SDS011;25666;44.350;9.222;2023-05-10T01:11:52;15.07;;;8.43;;
32323;SDS011;25666;44.350;9.222;2023-05-10T01:14:19;15.07;;;8.90;;
32323;SDS011;25666;44.350;9.222;2023-05-10T01:16:47;12.90;;;9.10;;
32323;SDS011;25666;44.350;9.222;2023-05-10T01:19:18;15.73;;;9.40;;
32323;SDS011;25666;44.350;9.222;2023-05-10T01:30:13;16.85;;;10.00;;
32323;SDS011;25666;44.350;9.222;2023-05-10T01:43:40;15.13;;;10.00;;
32323;SDS011;25666;44.350;9.222;2023-05-10T01:46:17;14.30;;;8.80;;
32323;SDS011;25666;44.350;9.222;2023-05-10T01:48:51;20.30;;;8.90;;
32323;SDS011;25666;44.350;9.222;2023-05-10T01:51:23;18.27;;;9.55;;
32323;SDS011;25666;44.350;9.222;2023-05-10T01:53:51;19.47;;;11.63;;
32323;SDS011;25666;44.350;9.222;2023-05-10T01:56:24;17.80;;;10.18;;
32323;SDS011;25666;44.350;9.222;2023-05-10T01:58:51;13.52;;;8.48;;
32323;SDS011;25666;44.350;9.222;2023-05-10T02:01:18;19.88;;;10.63;;
32323;SDS011;25666;44.350;9.222;2023-05-10T02:03:45;15.30;;;9.95;;
32323;SDS011;25666;44.350;9.222;2023-05-10T02:06:12;17.98;;;10.13;;
32323;SDS011;25666;44.350;9.222;2023-05-10T02:08:39;21.17;;;9.45;;
32323;SDS011;25666;44.350;9.222;2023-05-10T02:11:06;12.07;;;7.82;;
32323;SDS011;25666;44.350;9.222;2023-05-10T02:13:33;13.23;;;7.93;;
32323;SDS011;25666;44.350;9.222;2023-05-10T02:16:01;12.52;;;7.45;;
32323;SDS011;25666;44.350;9.222;2023-05-10T02:18:29;10.38;;;8.00;;
32323;SDS011;25666;44.350;9.222;2023-05-10T02:20:56;11.18;;;7.60;;
32323;SDS011;25666;44.350;9.222;2023-05-10T02:23:23;14.70;;;6.88;;
32323;SDS011;25666;44.350;9.222;2023-05-10T02:25:51;17.70;;;8.45;;
32323;SDS011;25666;44.350;9.222;2023-05-10T02:28:19;15.05;;;7.32;;
32323;SDS011;25666;44.350;9.222;2023-05-10T02:30:48;12.80;;;7.72;;
32323;SDS011;25666;44.350;9.222;2023-05-10T02:33:15;11.85;;;8.45;;
32323;SDS011;25666;44.350;9.222;2023-05-10T02:35:41;18.25;;;9.93;;
32323;SDS011;25666;44.350;9.222;2023-05-10T02:38:07;21.85;;;10.57;;
32323;SDS011;25666;44.350;9.222;2023-05-10T02:40:34;10.30;;;7.85;;
32323;SDS011;25666;44.350;9.222;2023-05-10T02:43:01;19.15;;;8.98;;
32323;SDS011;25666;44.350;9.222;2023-05-10T02:45:30;11.75;;;8.18;;
32323;SDS011;25666;44.350;9.222;2023-05-10T02:47:57;14.05;;;8.55;;
32323;SDS011;25666;44.350;9.222;2023-05-10T02:50:24;20.27;;;10.90;;
32323;SDS011;25666;44.350;9.222;2023-05-10T02:52:52;15.10;;;8.52;;
32323;SDS011;25666;44.350;9.222;2023-05-10T02:55:25;11.00;;;8.00;;
32323;SDS011;25666;44.350;9.222;2023-05-10T02:57:58;12.60;;;7.00;;
32323;SDS011;25666;44.350;9.222;2023-05-10T03:00:26;17.58;;;7.72;;
32323;SDS011;25666;44.350;9.222;2023-05-10T03:02:51;12.15;;;8.18;;
32323;SDS011;25666;44.350;9.222;2023-05-10T03:05:17;14.05;;;8.82;;
32323;SDS011;25666;44.350;9.222;2023-05-10T03:07:44;15.05;;;9.38;;
32323;SDS011;25666;44.350;9.222;2023-05-10T03:10:10;13.52;;;8.32;;
32323;SDS011;25666;44.350;9.222;2023-05-10T03:18:33;9.00;;;6.00;;
32323;SDS011;25666;44.350;9.222;2023-05-10T03:21:07;10.32;;;7.30;;
32323;SDS011;25666;44.350;9.222;2023-05-10T03:24:12;11.55;;;7.15;;
32323;SDS011;25666;44.350;9.222;2023-05-10T03:26:34;13.40;;;7.05;;
32323;SDS011;25666;44.350;9.222;2023-05-10T03:29:09;10.32;;;6.53;;
32323;SDS011;25666;44.350;9.222;2023-05-10T03:31:37;16.35;;;7.22;;
32323;SDS011;25666;44.350;9.222;2023-05-10T03:34:03;9.90;;;6.50;;
32323;SDS011;25666;44.350;9.222;2023-05-10T03:36:29;12.15;;;6.30;;
32323;SDS011;25666;44.350;9.222;2023-05-10T03:38:55;8.80;;;6.40;;
32323;SDS011;25666;44.350;9.222;2023-05-10T03:41:20;15.35;;;7.13;;
32323;SDS011;25666;44.350;9.222;2023-05-10T03:43:46;8.88;;;6.28;;
32323;SDS011;25666;44.350;9.222;2023-05-10T03:46:12;13.25;;;7.57;;
32323;SDS011;25666;44.350;9.222;2023-05-10T03:48:38;9.73;;;7.00;;
32323;SDS011;25666;44.350;9.222;2023-05-10T03:51:04;11.65;;;7.28;;
32323;SDS011;25666;44.350;9.222;2023-05-10T03:53:29;10.55;;;6.70;;
32323;SDS011;25666;44.350;9.222;2023-05-10T03:55:55;12.65;;;7.45;;
32323;SDS011;25666;44.350;9.222;2023-05-10T03:58:20;10.38;;;6.55;;
32323;SDS011;25666;44.350;9.222;2023-05-10T04:00:47;7.70;;;5.80;;
32323;SDS011;25666;44.350;9.222;2023-05-10T04:03:13;11.18;;;6.63;;
32323;SDS011;25666;44.350;9.222;2023-05-10T04:05:39;8.20;;;6.50;;
32323;SDS011;25666;44.350;9.222;2023-05-10T04:08:05;12.52;;;6.45;;
32323;SDS011;25666;44.350;9.222;2023-05-10T04:10:31;5.82;;;4.10;;
32323;SDS011;25666;44.350;9.222;2023-05-10T04:12:57;5.40;;;3.17;;
32323;SDS011;25666;44.350;9.222;2023-05-10T04:15:22;7.40;;;3.63;;
32323;SDS011;25666;44.350;9.222;2023-05-10T04:17:48;11.68;;;5.65;;
32323;SDS011;25666;44.350;9.222;2023-05-10T04:20:13;10.52;;;4.35;;
32323;SDS011;25666;44.350;9.222;2023-05-10T04:22:39;7.65;;;3.53;;
32323;SDS011;25666;44.350;9.222;2023-05-10T04:25:05;8.45;;;3.90;;
32323;SDS011;25666;44.350;9.222;2023-05-10T04:27:32;4.93;;;3.60;;
32323;SDS011;25666;44.350;9.222;2023-05-10T04:29:57;6.97;;;3.63;;
32323;SDS011;25666;44.350;9.222;2023-05-10T04:32:23;7.88;;;3.85;;
32323;SDS011;25666;44.350;9.222;2023-05-10T04:34:48;6.85;;;4.07;;
32323;SDS011;25666;44.350;9.222;2023-05-10T04:37:14;10.38;;;4.10;;
32323;SDS011;25666;44.350;9.222;2023-05-10T04:39:39;11.18;;;6.40;;
32323;SDS011;25666;44.350;9.222;2023-05-10T04:42:05;11.00;;;4.75;;
32323;SDS011;25666;44.350;9.222;2023-05-10T04:44:33;10.20;;;5.10;;
32323;SDS011;25666;44.350;9.222;2023-05-10T04:46:59;8.10;;;3.80;;
32323;SDS011;25666;44.350;9.222;2023-05-10T04:49:25;18.60;;;4.38;;
32323;SDS011;25666;44.350;9.222;2023-05-10T04:51:50;5.85;;;3.80;;
32323;SDS011;25666;44.350;9.222;2023-05-10T04:54:16;10.32;;;3.97;;
32323;SDS011;25666;44.350;9.222;2023-05-10T04:56:41;11.40;;;3.97;;
32323;SDS011;25666;44.350;9.222;2023-05-10T04:59:07;6.00;;;4.57;;
32323;SDS011;25666;44.350;9.222;2023-05-10T05:01:32;8.45;;;4.78;;
32323;SDS011;25666;44.350;9.222;2023-05-10T05:03:58;6.18;;;3.83;;
32323;SDS011;25666;44.350;9.222;2023-05-10T05:06:24;7.60;;;3.90;;
32323;SDS011;25666;44.350;9.222;2023-05-10T05:08:50;9.77;;;3.65;;
32323;SDS011;25666;44.350;9.222;2023-05-10T05:11:16;9.20;;;4.75;;
32323;SDS011;25666;44.350;9.222;2023-05-10T05:13:42;7.40;;;4.18;;
32323;SDS011;25666;44.350;9.222;2023-05-10T05:16:08;7.28;;;4.57;;
32323;SDS011;25666;44.350;9.222;2023-05-10T05:18:33;7.82;;;4.13;;
32323;SDS011;25666;44.350;9.222;2023-05-10T05:20:59;16.48;;;7.13;;
32323;SDS011;25666;44.350;9.222;2023-05-10T05:23:24;11.43;;;5.93;;
32323;SDS011;25666;44.350;9.222;2023-05-10T05:25:53;11.55;;;4.93;;
32323;SDS011;25666;44.350;9.222;2023-05-10T05:28:19;8.65;;;4.70;;
32323;SDS011;25666;44.350;9.222;2023-05-10T05:30:45;7.50;;;4.40;;
32323;SDS011;25666;44.350;9.222;2023-05-10T05:33:11;8.73;;;4.78;;
32323;SDS011;25666;44.350;9.222;2023-05-10T05:35:38;9.45;;;5.82;;
32323;SDS011;25666;44.350;9.222;2023-05-10T05:38:03;11.68;;;4.82;;
32323;SDS011;25666;44.350;9.222;2023-05-10T05:40:28;6.10;;;4.45;;
32323;SDS011;25666;44.350;9.222;2023-05-10T05:42:54;5.95;;;3.72;;
32323;SDS011;25666;44.350;9.222;2023-05-10T05:45:19;8.50;;;3.85;;
32323;SDS011;25666;44.350;9.222;2023-05-10T05:47:46;8.20;;;4.13;;
32323;SDS011;25666;44.350;9.222;2023-05-10T05:50:12;10.07;;;3.95;;
32323;SDS011;25666;44.350;9.222;2023-05-10T05:52:37;5.85;;;3.47;;
32323;SDS011;25666;44.350;9.222;2023-05-10T05:55:03;4.60;;;3.63;;
32323;SDS011;25666;44.350;9.222;2023-05-10T05:57:29;5.68;;;3.58;;
32323;SDS011;25666;44.350;9.222;2023-05-10T05:59:55;4.35;;;3.40;;
32323;SDS011;25666;44.350;9.222;2023-05-10T06:02:21;6.15;;;3.33;;
32323;SDS011;25666;44.350;9.222;2023-05-10T06:04:46;5.25;;;3.70;;
32323;SDS011;25666;44.350;9.222;2023-05-10T06:07:11;5.28;;;3.80;;
32323;SDS011;25666;44.350;9.222;2023-05-10T06:09:37;7.15;;;4.07;;
32323;SDS011;25666;44.350;9.222;2023-05-10T06:12:02;5.55;;;4.25;;
32323;SDS011;25666;44.350;9.222;2023-05-10T06:14:28;5.97;;;3.40;;
32323;SDS011;25666;44.350;9.222;2023-05-10T06:16:53;3.83;;;3.00;;
32323;SDS011;25666;44.350;9.222;2023-05-10T06:19:19;4.20;;;2.78;;
32323;SDS011;25666;44.350;9.222;2023-05-10T06:21:44;5.35;;;3.88;;
32323;SDS011;25666;44.350;9.222;2023-05-10T06:24:10;12.43;;;4.47;;
32323;SDS011;25666;44.350;9.222;2023-05-10T06:26:35;6.47;;;4.03;;
32323;SDS011;25666;44.350;9.222;2023-05-10T06:29:01;8.57;;;4.15;;
32323;SDS011;25666;44.350;9.222;2023-05-10T06:31:26;8.80;;;3.85;;
32323;SDS011;25666;44.350;9.222;2023-05-10T06:33:52;4.68;;;3.53;;
32323;SDS011;25666;44.350;9.222;2023-05-10T06:36:18;8.82;;;4.35;;
32323;SDS011;25666;44.350;9.222;2023-05-10T06:38:43;7.68;;;3.55;;
32323;SDS011;25666;44.350;9.222;2023-05-10T06:41:09;5.70;;;3.53;;
32323;SDS011;25666;44.350;9.222;2023-05-10T06:43:34;9.93;;;3.28;;
32323;SDS011;25666;44.350;9.222;2023-05-10T06:46:00;7.43;;;3.00;;
32323;SDS011;25666;44.350;9.222;2023-05-10T06:48:25;3.22;;;2.92;;
32323;SDS011;25666;44.350;9.222;2023-05-10T06:50:51;3.78;;;2.80;;
32323;SDS011;25666;44.350;9.222;2023-05-10T06:53:16;5.70;;;2.30;;
32323;SDS011;25666;44.350;9.222;2023-05-10T06:55:42;6.00;;;2.60;;
32323;SDS011;25666;44.350;9.222;2023-05-10T06:58:07;5.18;;;2.60;;
32323;SDS011;25666;44.350;9.222;2023-05-10T07:00:33;4.78;;;2.78;;
32323;SDS011;25666;44.350;9.222;2023-05-10T07:02:58;6.68;;;3.38;;
32323;SDS011;25666;44.350;9.222;2023-05-10T07:05:24;7.88;;;3.03;;
32323;SDS011;25666;44.350;9.222;2023-05-10T07:07:49;8.93;;;3.65;;
32323;SDS011;25666;44.350;9.222;2023-05-10T07:10:15;5.03;;;3.08;;
32323;SDS011;25666;44.350;9.222;2023-05-10T07:12:40;5.03;;;2.30;;
32323;SDS011;25666;44.350;9.222;2023-05-10T07:15:06;4.43;;;2.92;;
32323;SDS011;25666;44.350;9.222;2023-05-10T07:17:32;8.55;;;3.05;;
32323;SDS011;25666;44.350;9.222;2023-05-10T07:19:58;4.35;;;2.70;;
32323;SDS011;25666;44.350;9.222;2023-05-10T07:22:25;5.70;;;2.58;;
32323;SDS011;25666;44.350;9.222;2023-05-10T07:24:50;4.95;;;2.60;;
32323;SDS011;25666;44.350;9.222;2023-05-10T07:27:16;3.97;;;2.63;;
32323;SDS011;25666;44.350;9.222;2023-05-10T07:29:41;2.42;;;2.20;;
32323;SDS011;25666;44.350;9.222;2023-05-10T07:32:07;6.55;;;2.50;;
32323;SDS011;25666;44.350;9.222;2023-05-10T07:34:32;3.28;;;2.35;;
32323;SDS011;25666;44.350;9.222;2023-05-10T07:36:58;6.38;;;3.25;;
32323;SDS011;25666;44.350;9.222;2023-05-10T07:39:25;4.43;;;3.00;;
32323;SDS011;25666;44.350;9.222;2023-05-10T07:41:51;7.80;;;4.20;;
32323;SDS011;25666;44.350;9.222;2023-05-10T07:44:17;9.77;;;3.78;;
32323;SDS011;25666;44.350;9.222;2023-05-10T07:46:44;4.60;;;3.08;;
32323;SDS011;25666;44.350;9.222;2023-05-10T07:49:09;4.15;;;3.10;;
32323;SDS011;25666;44.350;9.222;2023-05-10T07:51:35;5.40;;;3.20;;
32323;SDS011;25666;44.350;9.222;2023-05-10T07:54:00;9.65;;;3.75;;
32323;SDS011;25666;44.350;9.222;2023-05-10T07:56:28;4.30;;;3.38;;
32323;SDS011;25666;44.350;9.222;2023-05-10T07:58:55;5.90;;;4.13;;
32323;SDS011;25666;44.350;9.222;2023-05-10T08:01:21;5.40;;;3.38;;
32323;SDS011;25666;44.350;9.222;2023-05-10T08:03:47;4.82;;;3.00;;
32323;SDS011;25666;44.350;9.222;2023-05-10T08:06:14;6.78;;;3.40;;
32323;SDS011;25666;44.350;9.222;2023-05-10T08:08:40;9.38;;;4.07;;
32323;SDS011;25666;44.350;9.222;2023-05-10T08:11:06;6.88;;;3.63;;
32323;SDS011;25666;44.350;9.222;2023-05-10T08:13:31;6.80;;;3.85;;
32323;SDS011;25666;44.350;9.222;2023-05-10T08:15:57;7.07;;;3.33;;
32323;SDS011;25666;44.350;9.222;2023-05-10T08:18:22;4.78;;;2.97;;
32323;SDS011;25666;44.350;9.222;2023-05-10T08:20:48;4.97;;;1.70;;
32323;SDS011;25666;44.350;9.222;2023-05-10T08:23:13;1.98;;;1.30;;
32323;SDS011;25666;44.350;9.222;2023-05-10T08:25:39;1.95;;;1.73;;
32323;SDS011;25666;44.350;9.222;2023-05-10T08:28:04;1.70;;;1.13;;
32323;SDS011;25666;44.350;9.222;2023-05-10T08:30:30;1.63;;;0.95;;
32323;SDS011;25666;44.350;9.222;2023-05-10T08:32:55;0.80;;;0.80;;
32323;SDS011;25666;44.350;9.222;2023-05-10T08:35:21;1.08;;;1.00;;
32323;SDS011;25666;44.350;9.222;2023-05-10T08:37:46;2.92;;;0.90;;
32323;SDS011;25666;44.350;9.222;2023-05-10T08:40:12;0.70;;;0.70;;
32323;SDS011;25666;44.350;9.222;2023-05-10T08:42:40;1.40;;;0.98;;
32323;SDS011;25666;44.350;9.222;2023-05-10T08:45:08;0.80;;;0.80;;
32323;SDS011;25666;44.350;9.222;2023-05-10T08:47:36;1.08;;;1.00;;
32323;SDS011;25666;44.350;9.222;2023-05-10T08:50:03;1.00;;;0.70;;
32323;SDS011;25666;44.350;9.222;2023-05-10T08:52:29;0.80;;;0.80;;
32323;SDS011;25666;44.350;9.222;2023-05-10T08:54:57;0.77;;;0.70;;
32323;SDS011;25666;44.350;9.222;2023-05-10T08:57:23;1.35;;;0.68;;
32323;SDS011;25666;44.350;9.222;2023-05-10T08:59:48;0.75;;;0.70;;
32323;SDS011;25666;44.350;9.222;2023-05-10T09:02:14;1.92;;;0.88;;
32323;SDS011;25666;44.350;9.222;2023-05-10T09:04:40;0.68;;;0.60;;
32323;SDS011;25666;44.350;9.222;2023-05-10T09:07:06;1.35;;;0.50;;
32323;SDS011;25666;44.350;9.222;2023-05-10T09:09:32;0.90;;;0.90;;
32323;SDS011;25666;44.350;9.222;2023-05-10T09:11:59;3.20;;;0.60;;
32323;SDS011;25666;44.350;9.222;2023-05-10T09:14:24;2.05;;;1.20;;
32323;SDS011;25666;44.350;9.222;2023-05-10T09:16:50;2.30;;;1.05;;
32323;SDS011;25666;44.350;9.222;2023-05-10T09:19:16;1.15;;;1.00;;
32323;SDS011;25666;44.350;9.222;2023-05-10T09:21:42;1.00;;;0.95;;
32323;SDS011;25666;44.350;9.222;2023-05-10T09:24:08;1.27;;;0.90;;
32323;SDS011;25666;44.350;9.222;2023-05-10T09:26:34;2.15;;;1.30;;
32323;SDS011;25666;44.350;9.222;2023-05-10T09:29:01;2.60;;;1.08;;
32323;SDS011;25666;44.350;9.222;2023-05-10T09:31:43;1.25;;;1.10;;
32323;SDS011;25666;44.350;9.222;2023-05-10T09:34:08;0.70;;;0.70;;
32323;SDS011;25666;44.350;9.222;2023-05-10T09:36:34;1.67;;;0.93;;
32323;SDS011;25666;44.350;9.222;2023-05-10T09:38:59;0.82;;;0.77;;
32323;SDS011;25666;44.350;9.222;2023-05-10T09:41:25;3.78;;;2.40;;
32323;SDS011;25666;44.350;9.222;2023-05-10T09:43:50;1.10;;;1.10;;
32323;SDS011;25666;44.350;9.222;2023-05-10T09:46:20;2.63;;;1.10;;
32323;SDS011;25666;44.350;9.222;2023-05-10T09:48:46;3.35;;;1.00;;
32323;SDS011;25666;44.350;9.222;2023-05-10T09:51:22;3.38;;;1.00;;
32323;SDS011;25666;44.350;9.222;2023-05-10T09:53:50;0.75;;;0.75;;
32323;SDS011;25666;44.350;9.222;2023-05-10T09:56:40;0.93;;;0.83;;
32323;SDS011;25666;44.350;9.222;2023-05-10T09:59:07;0.88;;;0.82;;
32323;SDS011;25666;44.350;9.222;2023-05-10T10:01:34;1.60;;;1.08;;
32323;SDS011;25666;44.350;9.222;2023-05-10T10:04:04;0.80;;;0.80;;
32323;SDS011;25666;44.350;9.222;2023-05-10T10:06:34;0.82;;;0.82;;
32323;SDS011;25666;44.350;9.222;2023-05-10T10:09:03;0.85;;;0.85;;
32323;SDS011;25666;44.350;9.222;2023-05-10T10:11:30;5.07;;;0.93;;
32323;SDS011;25666;44.350;9.222;2023-05-10T10:13:56;10.23;;;0.95;;
32323;SDS011;25666;44.350;9.222;2023-05-10T10:16:21;0.80;;;0.80;;
32323;SDS011;25666;44.350;9.222;2023-05-10T10:18:47;2.28;;;1.30;;
32323;SDS011;25666;44.350;9.222;2023-05-10T10:21:13;1.02;;;0.80;;
32323;SDS011;25666;44.350;9.222;2023-05-10T10:23:40;1.75;;;0.60;;
32323;SDS011;25666;44.350;9.222;2023-05-10T10:26:05;3.20;;;1.63;;
32323;SDS011;25666;44.350;9.222;2023-05-10T10:31:13;1.73;;;0.73;;
32323;SDS011;25666;44.350;9.222;2023-05-10T10:33:55;2.05;;;1.25;;
32323;SDS011;25666;44.350;9.222;2023-05-10T10:36:25;0.73;;;0.73;;
32323;SDS011;25666;44.350;9.222;2023-05-10T10:52:21;2.78;;;1.00;;
32323;SDS011;25666;44.350;9.222;2023-05-10T10:55:02;3.15;;;0.88;;
32323;SDS011;25666;44.350;9.222;2023-05-10T10:57:32;0.50;;;0.50;;
32323;SDS011;25666;44.350;9.222;2023-05-10T11:07:54;2.15;;;0.60;;
32323;SDS011;25666;44.350;9.222;2023-05-10T11:10:21;1.35;;;1.25;;
32323;SDS011;25666;44.350;9.222;2023-05-10T11:13:00;3.03;;;0.88;;
32323;SDS011;25666;44.350;9.222;2023-05-10T11:15:33;2.28;;;1.05;;
32323;SDS011;25666;44.350;9.222;2023-05-10T11:18:23;6.68;;;0.85;;
32323;SDS011;25666;44.350;9.222;2023-05-10T11:21:00;3.17;;;1.05;;
32323;SDS011;25666;44.350;9.222;2023-05-10T11:26:21;1.02;;;0.80;;
32323;SDS011;25666;44.350;9.222;2023-05-10T11:28:52;3.53;;;0.80;;
32323;SDS011;25666;44.350;9.222;2023-05-10T11:31:23;1.40;;;0.80;;
32323;SDS011;25666;44.350;9.222;2023-05-10T11:33:52;5.10;;;0.70;;
32323;SDS011;25666;44.350;9.222;2023-05-10T11:36:21;1.80;;;0.63;;
32323;SDS011;25666;44.350;9.222;2023-05-10T11:38:51;0.73;;;0.73;;
32323;SDS011;25666;44.350;9.222;2023-05-10T11:41:18;0.80;;;0.80;;
32323;SDS011;25666;44.350;9.222;2023-05-10T11:43:47;2.28;;;0.80;;
32323;SDS011;25666;44.350;9.222;2023-05-10T11:46:15;0.60;;;0.60;;
32323;SDS011;25666;44.350;9.222;2023-05-10T11:48:44;2.92;;;0.80;;
32323;SDS011;25666;44.350;9.222;2023-05-10T11:51:10;1.50;;;0.60;;
32323;SDS011;25666;44.350;9.222;2023-05-10T11:53:36;0.80;;;0.80;;
32323;SDS011;25666;44.350;9.222;2023-05-10T11:56:06;2.30;;;0.80;;
32323;SDS011;25666;44.350;9.222;2023-05-10T11:58:32;0.77;;;0.75;;
32323;SDS011;25666;44.350;9.222;2023-05-10T12:00:59;3.20;;;0.90;;
32323;SDS011;25666;44.350;9.222;2023-05-10T12:03:25;0.65;;;0.63;;
32323;SDS011;25666;44.350;9.222;2023-05-10T12:05:51;3.50;;;0.70;;
32323;SDS011;25666;44.350;9.222;2023-05-10T12:08:20;1.38;;;0.75;;
32323;SDS011;25666;44.350;9.222;2023-05-10T12:10:47;1.92;;;1.05;;
32323;SDS011;25666;44.350;9.222;2023-05-10T12:13:13;1.55;;;0.73;;
32323;SDS011;25666;44.350;9.222;2023-05-10T12:15:40;0.65;;;0.65;;
32323;SDS011;25666;44.350;9.222;2023-05-10T12:18:07;0.70;;;0.70;;
32323;SDS011;25666;44.350;9.222;2023-05-10T12:20:37;0.60;;;0.60;;
32323;SDS011;25666;44.350;9.222;2023-05-10T12:23:03;1.88;;;0.80;;
32323;SDS011;25666;44.350;9.222;2023-05-10T12:25:33;0.70;;;0.70;;
32323;SDS011;25666;44.350;9.222;2023-05-10T12:28:00;0.90;;;0.90;;
32323;SDS011;25666;44.350;9.222;2023-05-10T12:30:34;2.78;;;1.20;;
32323;SDS011;25666;44.350;9.222;2023-05-10T12:33:01;1.08;;;0.70;;
32323;SDS011;25666;44.350;9.222;2023-05-10T12:35:29;0.77;;;0.77;;
32323;SDS011;25666;44.350;9.222;2023-05-10T12:37:55;0.60;;;0.60;;
32323;SDS011;25666;44.350;9.222;2023-05-10T12:40:21;1.20;;;0.90;;
32323;SDS011;25666;44.350;9.222;2023-05-10T12:42:46;0.95;;;0.80;;
32323;SDS011;25666;44.350;9.222;2023-05-10T12:45:12;0.93;;;0.73;;
32323;SDS011;25666;44.350;9.222;2023-05-10T12:47:38;1.42;;;0.60;;
32323;SDS011;25666;44.350;9.222;2023-05-10T12:50:04;8.98;;;1.40;;
32323;SDS011;25666;44.350;9.222;2023-05-10T12:52:30;2.67;;;0.82;;
32323;SDS011;25666;44.350;9.222;2023-05-10T12:54:57;1.02;;;0.70;;
32323;SDS011;25666;44.350;9.222;2023-05-10T12:57:25;0.65;;;0.65;;
32323;SDS011;25666;44.350;9.222;2023-05-10T12:59:52;1.40;;;0.70;;
32323;SDS011;25666;44.350;9.222;2023-05-10T13:02:17;0.65;;;0.60;;
32323;SDS011;25666;44.350;9.222;2023-05-10T13:04:43;3.22;;;0.80;;
32323;SDS011;25666;44.350;9.222;2023-05-10T13:07:11;0.60;;;0.60;;
32323;SDS011;25666;44.350;9.222;2023-05-10T13:09:37;0.60;;;0.60;;
32323;SDS011;25666;44.350;9.222;2023-05-10T13:12:02;1.85;;;0.77;;
32323;SDS011;25666;44.350;9.222;2023-05-10T13:14:29;2.35;;;0.60;;
32323;SDS011;25666;44.350;9.222;2023-05-10T13:16:55;2.20;;;0.60;;
32323;SDS011;25666;44.350;9.222;2023-05-10T13:19:20;0.80;;;0.70;;
32323;SDS011;25666;44.350;9.222;2023-05-10T13:21:46;5.65;;;1.10;;
32323;SDS011;25666;44.350;9.222;2023-05-10T13:24:12;0.60;;;0.60;;
32323;SDS011;25666;44.350;9.222;2023-05-10T13:26:41;4.47;;;0.93;;
32323;SDS011;25666;44.350;9.222;2023-05-10T13:29:07;0.80;;;0.77;;
32323;SDS011;25666;44.350;9.222;2023-05-10T13:31:33;0.75;;;0.63;;
32323;SDS011;25666;44.350;9.222;2023-05-10T13:33:59;1.77;;;0.75;;
32323;SDS011;25666;44.350;9.222;2023-05-10T13:36:25;0.63;;;0.63;;
32323;SDS011;25666;44.350;9.222;2023-05-10T13:38:51;2.05;;;0.40;;
32323;SDS011;25666;44.350;9.222;2023-05-10T13:41:16;0.57;;;0.57;;
32323;SDS011;25666;44.350;9.222;2023-05-10T13:43:42;0.55;;;0.55;;
32323;SDS011;25666;44.350;9.222;2023-05-10T13:46:08;0.45;;;0.45;;
32323;SDS011;25666;44.350;9.222;2023-05-10T13:48:33;0.50;;;0.50;;
32323;SDS011;25666;44.350;9.222;2023-05-10T13:50:59;0.60;;;0.60;;
32323;SDS011;25666;44.350;9.222;2023-05-10T13:53:24;0.98;;;0.90;;
32323;SDS011;25666;44.350;9.222;2023-05-10T13:55:50;0.80;;;0.80;;
32323;SDS011;25666;44.350;9.222;2023-05-10T13:58:15;3.25;;;0.70;;
32323;SDS011;25666;44.350;9.222;2023-05-10T14:00:41;1.23;;;0.82;;
32323;SDS011;25666;44.350;9.222;2023-05-10T14:03:06;0.82;;;0.57;;
32323;SDS011;25666;44.350;9.222;2023-05-10T14:05:34;2.35;;;0.95;;
32323;SDS011;25666;44.350;9.222;2023-05-10T14:07:59;0.40;;;0.40;;
32323;SDS011;25666;44.350;9.222;2023-05-10T14:10:25;2.42;;;0.60;;
32323;SDS011;25666;44.350;9.222;2023-05-10T14:12:50;2.03;;;0.65;;
32323;SDS011;25666;44.350;9.222;2023-05-10T14:15:16;0.60;;;0.60;;
32323;SDS011;25666;44.350;9.222;2023-05-10T14:17:41;0.90;;;0.80;;
32323;SDS011;25666;44.350;9.222;2023-05-10T14:20:07;3.42;;;0.75;;
32323;SDS011;25666;44.350;9.222;2023-05-10T14:22:33;1.77;;;0.90;;
32323;SDS011;25666;44.350;9.222;2023-05-10T14:25:00;0.70;;;0.70;;
32323;SDS011;25666;44.350;9.222;2023-05-10T14:27:25;0.73;;;0.73;;
32323;SDS011;25666;44.350;9.222;2023-05-10T14:29:51;2.58;;;0.80;;
32323;SDS011;25666;44.350;9.222;2023-05-10T14:32:18;0.60;;;0.60;;
32323;SDS011;25666;44.350;9.222;2023-05-10T14:34:43;2.13;;;0.93;;
32323;SDS011;25666;44.350;9.222;2023-05-10T14:37:12;3.35;;;0.93;;
32323;SDS011;25666;44.350;9.222;2023-05-10T14:39:39;1.38;;;0.60;;
32323;SDS011;25666;44.350;9.222;2023-05-10T14:42:05;1.58;;;0.82;;
32323;SDS011;25666;44.350;9.222;2023-05-10T14:44:30;1.13;;;0.80;;
32323;SDS011;25666;44.350;9.222;2023-05-10T14:46:56;1.95;;;1.00;;
32323;SDS011;25666;44.350;9.222;2023-05-10T14:49:22;1.08;;;0.70;;
32323;SDS011;25666;44.350;9.222;2023-05-10T14:51:49;0.70;;;0.70;;
32323;SDS011;25666;44.350;9.222;2023-05-10T14:54:15;0.80;;;0.80;;
32323;SDS011;25666;44.350;9.222;2023-05-10T14:56:40;0.77;;;0.77;;
32323;SDS011;25666;44.350;9.222;2023-05-10T14:59:06;2.58;;;0.70;;
32323;SDS011;25666;44.350;9.222;2023-05-10T15:01:32;1.70;;;0.90;;
32323;SDS011;25666;44.350;9.222;2023-05-10T15:03:59;1.25;;;0.68;;
32323;SDS011;25666;44.350;9.222;2023-05-10T15:06:32;0.82;;;0.60;;
32323;SDS011;25666;44.350;9.222;2023-05-10T15:08:59;1.17;;;0.70;;
32323;SDS011;25666;44.350;9.222;2023-05-10T15:11:25;0.70;;;0.70;;
32323;SDS011;25666;44.350;9.222;2023-05-10T15:13:51;0.70;;;0.70;;
32323;SDS011;25666;44.350;9.222;2023-05-10T15:16:16;1.38;;;0.82;;
32323;SDS011;25666;44.350;9.222;2023-05-10T15:18:42;2.33;;;1.10;;
32323;SDS011;25666;44.350;9.222;2023-05-10T15:21:07;0.98;;;0.80;;
32323;SDS011;25666;44.350;9.222;2023-05-10T15:23:33;1.20;;;1.00;;
32323;SDS011;25666;44.350;9.222;2023-05-10T15:25:59;1.38;;;0.75;;
32323;SDS011;25666;44.350;9.222;2023-05-10T15:28:25;0.70;;;0.70;;
32323;SDS011;25666;44.350;9.222;2023-05-10T15:30:50;0.60;;;0.60;;
32323;SDS011;25666;44.350;9.222;2023-05-10T15:33:16;0.60;;;0.60;;